createdAt,value
2023-02-05T00:01:29.032Z,5.57
2023-02-05T00:03:55.947Z,5.28
2023-02-05T00:06:23.130Z,6.00
2023-02-05T00:08:50.211Z,5.03
2023-02-05T00:11:17.300Z,4.85
2023-02-05T00:13:44.878Z,5.38
2023-02-05T00:16:17.674Z,5.80
2023-02-05T00:18:45.492Z,5.85
2023-02-05T00:21:13.886Z,5.78
2023-02-05T00:23:41.226Z,5.82
2023-02-05T00:26:10.581Z,5.72
2023-02-05T00:28:38.345Z,5.78
2023-02-05T00:31:11.078Z,5.70
2023-02-05T00:33:38.765Z,5.15
2023-02-05T00:36:05.950Z,6.40
2023-02-05T00:38:32.826Z,5.38
2023-02-05T00:41:00.011Z,5.65
2023-02-05T00:43:26.865Z,6.43
2023-02-05T00:45:53.686Z,6.07
2023-02-05T00:48:20.690Z,6.28
2023-02-05T00:50:51.837Z,6.05
2023-02-05T00:53:20.336Z,5.47
2023-02-05T00:55:47.134Z,5.53
2023-02-05T00:58:14.196Z,5.57
2023-02-05T01:00:41.187Z,6.03
2023-02-05T01:03:08.148Z,5.65
2023-02-05T01:05:36.707Z,5.50
2023-02-05T01:08:04.186Z,5.80
2023-02-05T01:10:31.281Z,6.07
2023-02-05T01:12:58.179Z,5.82
2023-02-05T01:15:25.205Z,6.70
2023-02-05T01:17:52.418Z,5.82
2023-02-05T01:20:20.435Z,5.88
2023-02-05T01:22:47.466Z,6.60
2023-02-05T01:25:15.360Z,6.55
2023-02-05T01:27:42.222Z,6.82
2023-02-05T01:30:11.760Z,6.05
2023-02-05T01:32:40.558Z,6.60
2023-02-05T01:35:08.894Z,7.75
2023-02-05T01:37:35.727Z,6.90
2023-02-05T01:40:02.616Z,6.80
2023-02-05T01:42:31.973Z,6.45
2023-02-05T01:45:23.850Z,6.13
2023-02-05T01:47:56.047Z,6.75
2023-02-05T01:51:01.439Z,7.72
2023-02-05T01:53:32.166Z,5.97
2023-02-05T01:56:07.729Z,6.55
2023-02-05T01:58:41.503Z,6.13
2023-02-05T02:01:08.441Z,6.50
2023-02-05T02:03:35.856Z,5.85
2023-02-05T02:06:04.736Z,6.10
2023-02-05T02:08:32.908Z,6.10
2023-02-05T02:11:03.044Z,6.32
2023-02-05T02:13:33.416Z,6.47
2023-02-05T02:16:05.605Z,6.63
2023-02-05T02:18:34.336Z,6.03
2023-02-05T02:21:13.035Z,6.53
2023-02-05T02:24:04.999Z,5.80
2023-02-05T02:26:52.949Z,5.70
2023-02-05T02:29:38.059Z,5.78
2023-02-05T02:32:23.969Z,6.72
2023-02-05T02:35:01.012Z,6.45
2023-02-05T02:37:39.987Z,5.80
2023-02-05T02:40:31.817Z,5.75
2023-02-05T02:43:14.425Z,5.68
2023-02-05T02:45:51.540Z,6.07
2023-02-05T02:48:21.811Z,5.53
2023-02-05T02:50:52.160Z,5.82
2023-02-05T02:53:26.596Z,6.40
2023-02-05T02:55:56.072Z,5.85
2023-02-05T02:58:27.576Z,6.22
2023-02-05T03:00:56.203Z,5.57
2023-02-05T03:03:26.193Z,5.97
2023-02-05T03:05:56.166Z,5.45
2023-02-05T03:08:29.193Z,5.78
2023-02-05T03:11:02.224Z,6.53
2023-02-05T03:13:30.954Z,5.63
2023-02-05T03:16:00.948Z,5.05
2023-02-05T03:18:29.072Z,5.55
2023-02-05T03:21:00.213Z,5.13
2023-02-05T03:23:28.203Z,4.80
2023-02-05T03:25:56.027Z,5.43
2023-02-05T03:28:31.749Z,5.05
2023-02-05T03:31:14.386Z,4.32
2023-02-05T03:33:47.409Z,4.85
2023-02-05T03:36:47.525Z,4.70
2023-02-05T03:39:33.113Z,5.47
2023-02-05T03:42:13.796Z,5.40
2023-02-05T03:45:20.537Z,5.25
2023-02-05T03:48:09.012Z,5.30
2023-02-05T03:50:51.166Z,5.00
2023-02-05T03:53:58.281Z,5.00
2023-02-05T03:56:59.347Z,5.22
2023-02-05T03:59:28.664Z,5.63
2023-02-05T04:01:56.362Z,5.30
2023-02-05T04:04:23.691Z,4.82
2023-02-05T04:06:52.516Z,4.43
2023-02-05T04:09:19.956Z,4.72
2023-02-05T04:11:46.783Z,4.20
2023-02-05T04:14:13.688Z,4.47
2023-02-05T04:16:43.044Z,4.00
2023-02-05T04:19:09.926Z,4.53
2023-02-05T04:21:36.861Z,4.20
2023-02-05T04:24:04.085Z,3.88
2023-02-05T04:26:31.179Z,4.55
2023-02-05T04:29:02.376Z,4.38
2023-02-05T04:31:32.092Z,3.72
2023-02-05T04:34:00.025Z,4.45
2023-02-05T04:36:27.559Z,4.25
2023-02-05T04:38:54.406Z,4.20
2023-02-05T04:41:22.352Z,4.72
2023-02-05T04:43:49.203Z,4.88
2023-02-05T04:46:16.119Z,5.05
2023-02-05T04:48:42.977Z,4.40
2023-02-05T04:51:11.915Z,3.90
2023-02-05T04:53:40.200Z,4.53
2023-02-05T04:56:07.906Z,4.35
2023-02-05T04:58:35.233Z,4.40
2023-02-05T05:01:02.526Z,4.65
2023-02-05T05:03:29.432Z,4.70
2023-02-05T05:05:56.375Z,3.85
2023-02-05T05:08:23.261Z,3.83
2023-02-05T05:10:50.102Z,4.38
2023-02-05T05:13:16.894Z,4.53
2023-02-05T05:15:43.706Z,4.15
2023-02-05T05:18:11.376Z,3.75
2023-02-05T05:20:38.221Z,4.43
2023-02-05T05:23:05.023Z,4.78
2023-02-05T05:25:32.131Z,5.57
2023-02-05T05:27:59.294Z,5.35
2023-02-05T05:30:26.118Z,4.57
2023-02-05T05:32:52.945Z,5.10
2023-02-05T05:35:19.797Z,5.22
2023-02-05T05:37:46.584Z,5.13
2023-02-05T05:40:31.766Z,5.20
2023-02-05T05:43:17.149Z,5.32
2023-02-05T05:45:44.082Z,5.15
2023-02-05T05:48:11.004Z,4.95
2023-02-05T05:50:37.946Z,5.28
2023-02-05T05:53:04.757Z,5.15
2023-02-05T05:55:31.880Z,5.13
2023-02-05T05:57:58.873Z,5.20
2023-02-05T06:00:25.654Z,5.32
2023-02-05T06:02:52.441Z,5.80
2023-02-05T06:05:19.310Z,5.63
2023-02-05T06:07:46.183Z,5.10
2023-02-05T06:10:13.136Z,4.97
2023-02-05T06:12:40.023Z,5.53
2023-02-05T06:15:07.379Z,5.78
2023-02-05T06:17:34.241Z,5.30
2023-02-05T06:20:01.181Z,5.93
2023-02-05T06:22:28.006Z,5.22
2023-02-05T06:24:54.908Z,4.72
2023-02-05T06:27:21.850Z,5.70
2023-02-05T06:29:48.692Z,5.55
2023-02-05T06:32:15.494Z,5.75
2023-02-05T06:34:42.262Z,5.35
2023-02-05T06:37:09.919Z,6.18
2023-02-05T06:39:37.520Z,5.30
2023-02-05T06:42:04.438Z,6.35
2023-02-05T06:44:31.263Z,4.95
2023-02-05T06:46:58.117Z,6.00
2023-02-05T06:49:24.960Z,5.32
2023-02-05T06:51:51.709Z,5.32
2023-02-05T06:54:18.604Z,5.47
2023-02-05T06:56:45.417Z,5.30
2023-02-05T06:59:12.327Z,5.03
2023-02-05T07:01:39.194Z,5.45
2023-02-05T07:04:06.112Z,6.07
2023-02-05T07:06:32.989Z,5.32
2023-02-05T07:09:00.391Z,5.25
2023-02-05T07:11:27.238Z,5.35
2023-02-05T07:13:55.276Z,5.20
2023-02-05T07:16:22.351Z,5.47
2023-02-05T07:18:49.297Z,5.70
2023-02-05T07:21:17.270Z,6.05
2023-02-05T07:23:44.184Z,6.05
2023-02-05T07:26:14.078Z,5.80
2023-02-05T07:28:42.122Z,6.55
2023-02-05T07:31:12.484Z,6.30
2023-02-05T07:33:39.336Z,6.70
2023-02-05T07:36:07.791Z,6.70
2023-02-05T07:38:36.381Z,5.90
2023-02-05T07:41:04.759Z,6.22
2023-02-05T07:43:32.437Z,6.10
2023-02-05T07:46:00.642Z,6.82
2023-02-05T07:48:27.793Z,5.72
2023-02-05T07:50:54.571Z,6.78
2023-02-05T07:53:21.699Z,5.57
2023-02-05T07:55:48.551Z,6.38
2023-02-05T07:58:15.814Z,6.43
2023-02-05T08:00:42.975Z,6.22
2023-02-05T08:03:10.627Z,6.63
2023-02-05T08:05:38.840Z,6.75
2023-02-05T08:08:06.923Z,6.68
2023-02-05T08:10:34.012Z,6.28
2023-02-05T08:13:00.840Z,6.40
2023-02-05T08:15:28.231Z,6.57
2023-02-05T08:17:55.073Z,5.72
2023-02-05T08:20:22.360Z,6.13
2023-02-05T08:22:49.224Z,6.47
2023-02-05T08:25:16.341Z,6.45
2023-02-05T08:27:43.653Z,5.63
2023-02-05T08:30:13.909Z,6.15
2023-02-05T08:32:40.665Z,5.57
2023-02-05T08:35:07.814Z,5.68
2023-02-05T08:37:34.883Z,5.93
2023-02-05T08:40:01.717Z,7.28
2023-02-05T08:42:28.676Z,7.20
2023-02-05T08:44:58.454Z,6.03
2023-02-05T08:47:26.350Z,6.05
2023-02-05T08:49:53.669Z,4.80
2023-02-05T08:52:20.929Z,5.70
2023-02-05T08:54:48.221Z,4.95
2023-02-05T08:57:16.561Z,6.13
2023-02-05T08:59:43.438Z,4.95
2023-02-05T09:02:15.097Z,5.78
2023-02-05T09:04:42.422Z,5.78
2023-02-05T09:07:09.437Z,5.55
2023-02-05T09:09:36.971Z,5.40
2023-02-05T09:12:04.268Z,5.28
2023-02-05T09:14:36.201Z,4.80
2023-02-05T09:17:04.696Z,5.53
2023-02-05T09:19:35.125Z,6.07
2023-02-05T09:22:02.051Z,5.45
2023-02-05T09:24:29.364Z,5.15
2023-02-05T09:26:56.310Z,5.22
2023-02-05T09:29:23.271Z,5.13
2023-02-05T09:31:50.206Z,5.05
2023-02-05T09:34:17.092Z,5.25
2023-02-05T09:36:43.940Z,5.68
2023-02-05T09:39:21.819Z,5.15
2023-02-05T09:42:10.592Z,5.80
2023-02-05T09:44:43.704Z,5.72
2023-02-05T09:47:21.356Z,5.25
2023-02-05T09:50:09.714Z,5.13
2023-02-05T09:52:39.324Z,5.57
2023-02-05T09:55:34.759Z,5.85
2023-02-05T09:58:12.782Z,5.63
2023-02-05T10:00:44.961Z,5.03
2023-02-05T10:03:27.806Z,5.40
2023-02-05T10:06:09.709Z,5.55
2023-02-05T10:08:53.598Z,5.35
2023-02-05T10:11:46.154Z,4.70
2023-02-05T10:14:32.151Z,5.03
2023-02-05T10:17:20.457Z,4.90
2023-02-05T10:20:07.363Z,4.43
2023-02-05T10:22:37.238Z,4.45
2023-02-05T10:25:30.499Z,5.30
2023-02-05T10:28:16.018Z,3.95
2023-02-05T10:30:54.721Z,5.07
2023-02-05T10:33:58.315Z,5.10
2023-02-05T10:36:27.089Z,5.32
2023-02-05T10:38:56.783Z,5.07
2023-02-05T10:41:44.298Z,5.72
2023-02-05T10:44:31.517Z,4.55
2023-02-05T10:47:10.670Z,5.10
2023-02-05T10:49:50.652Z,5.18
2023-02-05T10:52:17.853Z,4.97
2023-02-05T10:54:46.254Z,5.30
2023-02-05T10:57:19.354Z,5.60
2023-02-05T10:59:59.591Z,4.78
2023-02-05T11:02:37.768Z,4.53
2023-02-05T11:05:15.007Z,5.07
2023-02-05T11:07:46.083Z,4.40
2023-02-05T11:10:22.874Z,4.28
2023-02-05T11:12:53.691Z,4.53
2023-02-05T11:15:29.933Z,4.55
2023-02-05T11:18:00.933Z,4.63
2023-02-05T11:20:29.384Z,4.47
2023-02-05T11:23:19.204Z,4.57
2023-02-05T11:25:52.281Z,4.50
2023-02-05T11:28:36.690Z,4.65
2023-02-05T11:31:27.079Z,7.10
2023-02-05T11:34:09.383Z,6.88
2023-02-05T11:36:38.420Z,7.40
2023-02-05T11:39:06.953Z,4.75
2023-02-05T11:42:02.746Z,4.85
2023-02-05T11:44:35.712Z,5.32
2023-02-05T11:49:41.604Z,4.30
2023-02-05T11:52:11.712Z,4.50
2023-02-05T11:54:43.734Z,4.47
2023-02-05T11:57:19.828Z,5.00
2023-02-05T11:59:56.844Z,4.55
2023-02-05T12:02:28.870Z,4.03
2023-02-05T12:05:16.233Z,4.50
2023-02-05T12:07:43.140Z,4.68
2023-02-05T12:10:16.668Z,4.53
2023-02-05T12:13:19.461Z,3.90
2023-02-05T12:16:18.823Z,3.87
2023-02-05T12:19:00.741Z,3.97
2023-02-05T12:22:00.046Z,3.33
2023-02-05T12:24:45.221Z,3.60
2023-02-05T12:27:22.625Z,3.25
2023-02-05T12:30:01.341Z,4.15
2023-02-05T12:32:46.873Z,3.22
2023-02-05T12:35:22.028Z,3.42
2023-02-05T12:37:57.858Z,3.58
2023-02-05T12:40:34.869Z,4.18
2023-02-05T12:43:06.879Z,5.78
2023-02-05T12:45:54.880Z,4.20
2023-02-05T12:48:42.708Z,3.35
2023-02-05T12:51:37.174Z,3.65
2023-02-05T12:54:43.110Z,3.40
2023-02-05T12:57:21.810Z,3.70
2023-02-05T13:00:27.292Z,3.72
2023-02-05T13:03:08.453Z,3.33
2023-02-05T13:05:40.486Z,3.10
2023-02-05T13:08:42.623Z,4.23
2023-02-05T13:11:20.214Z,3.45
2023-02-05T13:14:16.066Z,3.28
2023-02-05T13:16:53.635Z,3.42
2023-02-05T13:19:39.372Z,4.07
2023-02-05T13:22:34.866Z,4.28
2023-02-05T13:25:37.996Z,3.80
2023-02-05T13:31:24.572Z,3.65
2023-02-05T13:33:54.454Z,4.40
2023-02-05T13:36:24.392Z,4.53
2023-02-05T13:38:51.231Z,3.45
2023-02-05T13:41:18.067Z,3.53
2023-02-05T13:44:06.056Z,2.80
2023-02-05T13:46:57.013Z,2.45
2023-02-05T13:49:50.251Z,2.40
2023-02-05T13:52:50.873Z,2.80
2023-02-05T13:55:29.434Z,3.15
2023-02-05T13:58:27.692Z,2.88
2023-02-05T14:01:05.921Z,2.40
2023-02-05T14:03:54.276Z,2.85
2023-02-05T14:06:28.578Z,2.50
2023-02-05T14:09:22.387Z,2.20
2023-02-05T14:11:53.855Z,3.30
2023-02-05T14:14:25.506Z,2.15
2023-02-05T14:16:53.896Z,3.20
2023-02-05T14:19:23.056Z,1.88
2023-02-05T14:21:57.046Z,2.30
2023-02-05T14:24:43.149Z,2.30
2023-02-05T14:27:37.862Z,2.60
2023-02-05T14:30:29.512Z,3.00
2023-02-05T14:33:00.337Z,2.50
2023-02-05T14:35:40.054Z,3.17
2023-02-05T14:38:32.808Z,3.35
2023-02-05T14:41:12.428Z,3.60
2023-02-05T14:43:43.430Z,3.28
2023-02-05T14:46:31.534Z,4.45
2023-02-05T14:49:01.295Z,5.20
2023-02-05T14:51:34.331Z,3.05
2023-02-05T14:54:20.048Z,4.53
2023-02-05T14:57:09.166Z,4.13
2023-02-05T14:59:51.145Z,2.10
2023-02-05T15:02:45.999Z,2.60
2023-02-05T15:05:21.416Z,5.00
2023-02-05T15:07:51.970Z,2.20
2023-02-05T15:10:25.626Z,1.95
2023-02-05T15:13:02.042Z,2.50
2023-02-05T15:15:37.358Z,4.25
2023-02-05T15:18:29.845Z,4.28
2023-02-05T15:20:57.689Z,3.08
2023-02-05T15:23:37.538Z,2.20
2023-02-05T15:26:17.855Z,2.10
2023-02-05T15:29:09.226Z,2.28
2023-02-05T15:32:04.947Z,2.63
2023-02-05T15:34:47.682Z,2.63
2023-02-05T15:37:25.662Z,2.70
2023-02-05T15:39:56.064Z,2.97
2023-02-05T15:42:45.204Z,4.75
2023-02-05T15:45:26.108Z,4.93
2023-02-05T15:48:05.908Z,4.25
2023-02-05T15:50:35.098Z,9.63
2023-02-05T15:53:05.358Z,6.40
2023-02-05T15:55:33.614Z,4.32
2023-02-05T15:58:04.874Z,3.60
2023-02-05T16:00:34.537Z,4.05
2023-02-05T16:03:07.110Z,3.75
2023-02-05T16:05:34.618Z,4.63
2023-02-05T16:08:03.158Z,5.07
2023-02-05T16:10:37.771Z,5.20
2023-02-05T16:13:07.817Z,6.07
2023-02-05T16:15:39.207Z,6.28
2023-02-05T16:18:11.304Z,5.55
2023-02-05T16:20:43.125Z,5.85
2023-02-05T16:23:40.572Z,5.80
2023-02-05T16:26:20.653Z,5.40
2023-02-05T16:28:52.976Z,5.55
2023-02-05T16:31:23.921Z,5.07
2023-02-05T16:34:08.967Z,4.75
2023-02-05T16:36:41.852Z,5.05
2023-02-05T16:42:09.082Z,5.28
2023-02-05T16:44:39.123Z,5.30
2023-02-05T16:47:09.340Z,4.63
2023-02-05T16:49:36.532Z,4.85
2023-02-05T16:52:04.393Z,4.50
2023-02-05T16:54:33.182Z,4.85
2023-02-05T16:57:03.298Z,4.22
2023-02-05T16:59:48.827Z,3.70
2023-02-05T17:02:29.173Z,4.57
2023-02-05T17:04:57.835Z,4.40
2023-02-05T17:07:24.905Z,5.78
2023-02-05T17:09:52.497Z,5.20
2023-02-05T17:12:22.104Z,5.65
2023-02-05T17:14:58.070Z,5.57
2023-02-05T17:17:26.965Z,4.50
2023-02-05T17:20:15.459Z,4.97
2023-02-05T17:23:00.801Z,5.03
2023-02-05T17:25:28.866Z,4.47
2023-02-05T17:27:56.438Z,5.32
2023-02-05T17:30:23.392Z,5.05
2023-02-05T17:32:51.174Z,5.90
2023-02-05T17:35:22.178Z,5.45
2023-02-05T17:37:49.169Z,4.80
2023-02-05T17:40:16.275Z,4.50
2023-02-05T17:42:45.419Z,4.93
2023-02-05T17:45:26.543Z,5.03
2023-02-05T17:47:54.013Z,4.65
2023-02-05T17:50:21.137Z,5.03
2023-02-05T17:52:48.062Z,5.13
2023-02-05T17:55:17.551Z,5.38
2023-02-05T17:57:45.596Z,5.47
2023-02-05T18:00:20.266Z,5.40
2023-02-05T18:02:47.493Z,5.20
2023-02-05T18:05:14.393Z,5.13
2023-02-05T18:08:07.713Z,5.90
2023-02-05T18:10:35.114Z,5.57
2023-02-05T18:13:03.097Z,7.03
2023-02-05T18:15:31.802Z,5.90
2023-02-05T18:17:58.732Z,7.22
2023-02-05T18:20:25.710Z,6.90
2023-02-05T18:22:52.693Z,6.20
2023-02-05T18:25:19.557Z,7.07
2023-02-05T18:27:48.115Z,7.10
2023-02-05T18:30:15.232Z,7.90
2023-02-05T18:32:42.208Z,6.97
2023-02-05T18:35:14.267Z,7.45
2023-02-05T18:37:42.485Z,7.40
2023-02-05T18:40:10.096Z,8.32
2023-02-05T18:42:37.354Z,8.68
2023-02-05T18:45:04.663Z,9.35
2023-02-05T18:47:31.826Z,9.10
2023-02-05T18:49:58.774Z,9.23
2023-02-05T18:52:27.315Z,9.68
2023-02-05T18:54:54.441Z,9.05
2023-02-05T18:57:21.559Z,6.90
2023-02-05T18:59:48.767Z,6.53
2023-02-05T19:02:15.670Z,6.53
2023-02-05T19:04:42.743Z,4.88
2023-02-05T19:07:12.017Z,5.10
2023-02-05T19:09:39.041Z,4.75
2023-02-05T19:12:13.228Z,5.05
2023-02-05T19:14:41.028Z,5.63
2023-02-05T19:17:08.090Z,4.82
2023-02-05T19:19:37.499Z,4.88
2023-02-05T19:22:06.515Z,5.43
2023-02-05T19:24:35.457Z,4.95
2023-02-05T19:27:02.559Z,5.13
2023-02-05T19:29:39.930Z,6.32
2023-02-05T19:32:11.662Z,5.38
2023-02-05T19:37:54.082Z,6.45
2023-02-05T19:40:21.502Z,5.32
2023-02-05T19:42:56.035Z,5.40
2023-02-05T19:45:28.992Z,4.97
2023-02-05T19:48:07.004Z,5.07
2023-02-05T19:50:42.626Z,4.70
2023-02-05T19:53:31.672Z,5.10
2023-02-05T19:56:19.828Z,5.60
2023-02-05T19:58:56.181Z,6.50
2023-02-05T20:01:34.033Z,5.47
2023-02-05T20:04:21.464Z,5.97
2023-02-05T20:06:49.882Z,6.18
2023-02-05T20:09:18.704Z,6.78
2023-02-05T20:11:52.682Z,6.47
2023-02-05T20:14:29.415Z,7.53
2023-02-05T20:16:56.710Z,7.25
2023-02-05T20:19:47.804Z,7.80
2023-02-05T20:22:59.011Z,7.55
2023-02-05T20:25:29.847Z,8.20
2023-02-05T20:27:56.963Z,8.38
2023-02-05T20:30:42.295Z,8.32
2023-02-05T20:33:09.369Z,9.32
2023-02-05T20:35:36.452Z,10.32
2023-02-05T20:38:06.000Z,10.68
2023-02-05T20:40:33.281Z,9.52
2023-02-05T20:43:00.407Z,8.63
2023-02-05T20:45:27.440Z,9.00
2023-02-05T20:47:54.472Z,8.13
2023-02-05T20:50:21.550Z,8.85
2023-02-05T20:52:48.591Z,9.45
2023-02-05T20:55:16.122Z,8.82
2023-02-05T20:57:43.176Z,10.55
2023-02-05T21:00:11.562Z,10.32
2023-02-05T21:02:41.388Z,10.90
2023-02-05T21:05:14.379Z,10.80
2023-02-05T21:07:41.643Z,11.05
2023-02-05T21:10:32.014Z,10.05
2023-02-05T21:22:36.876Z,11.02
2023-02-05T21:25:20.461Z,11.90
2023-02-05T21:27:57.300Z,11.63
2023-02-05T21:30:36.526Z,10.93
2023-02-05T21:36:36.429Z,11.45
2023-02-05T21:39:04.848Z,13.00
2023-02-05T21:41:35.666Z,12.48
2023-02-05T21:44:02.895Z,12.80
2023-02-05T21:46:35.418Z,13.02
2023-02-05T21:49:05.147Z,13.02
2023-02-05T21:51:38.437Z,14.80
2023-02-05T21:54:06.534Z,13.48
2023-02-05T21:56:40.872Z,13.95
2023-02-05T21:59:08.482Z,14.45
2023-02-05T22:01:39.135Z,13.40
2023-02-05T22:04:12.977Z,15.15
2023-02-05T22:06:42.625Z,14.55
2023-02-05T22:14:54.121Z,12.15
2023-02-05T22:17:22.329Z,11.93
2023-02-05T22:19:49.630Z,11.77
2023-02-05T22:22:19.661Z,13.07
2023-02-05T22:24:46.627Z,12.52
2023-02-05T22:27:13.657Z,14.20
2023-02-05T22:29:40.613Z,16.17
2023-02-05T22:32:07.691Z,15.57
2023-02-05T22:34:49.479Z,17.60
2023-02-05T22:37:21.170Z,18.92
2023-02-05T22:39:49.872Z,18.58
2023-02-05T22:42:19.785Z,20.48
2023-02-05T22:44:46.753Z,17.95
2023-02-05T22:47:13.708Z,17.42
2023-02-05T22:49:41.006Z,18.55
2023-02-05T22:52:08.258Z,16.90
2023-02-05T22:54:38.763Z,18.95
2023-02-05T22:57:05.881Z,18.05
2023-02-05T22:59:32.868Z,17.77
2023-02-05T23:01:59.780Z,19.42
2023-02-05T23:04:26.731Z,19.83
2023-02-05T23:06:53.877Z,21.27
2023-02-05T23:09:23.111Z,19.02
2023-02-05T23:12:09.437Z,18.60
2023-02-05T23:14:42.416Z,17.83
2023-02-05T23:17:12.741Z,18.63
2023-02-05T23:19:39.676Z,17.98
2023-02-05T23:22:10.403Z,18.67
2023-02-05T23:24:38.169Z,17.48
2023-02-05T23:27:05.890Z,17.45
2023-02-05T23:29:32.789Z,18.60
2023-02-05T23:31:59.805Z,18.38
2023-02-05T23:34:26.742Z,18.65
2023-02-05T23:36:53.793Z,18.95
2023-02-05T23:39:22.200Z,18.77
2023-02-05T23:41:49.326Z,18.40
2023-02-05T23:44:19.515Z,19.25
2023-02-05T23:46:49.243Z,20.48
2023-02-05T23:49:18.002Z,17.98
2023-02-05T23:51:44.828Z,18.13
2023-02-05T23:54:12.352Z,17.73
2023-02-05T23:56:39.780Z,18.33
2023-02-05T23:59:08.204Z,17.52
